createdAt,value
2018-12-08T00:00:17.940Z,0.00
2018-12-08T00:01:17.929Z,0.00
2018-12-08T00:02:17.916Z,0.00
2018-12-08T00:03:17.921Z,0.00
2018-12-08T00:04:17.893Z,0.00
2018-12-08T00:05:17.883Z,0.00
2018-12-08T00:06:17.888Z,0.00
2018-12-08T00:07:17.865Z,0.00
2018-12-08T00:08:17.851Z,0.00
2018-12-08T00:09:17.842Z,0.00
2018-12-08T00:10:17.830Z,0.00
2018-12-08T00:11:17.854Z,0.00
2018-12-08T00:12:17.814Z,0.00
2018-12-08T00:13:17.801Z,0.00
2018-12-08T00:14:17.794Z,0.00
2018-12-08T00:15:17.780Z,0.00
2018-12-08T00:16:17.768Z,0.00
2018-12-08T00:17:17.773Z,0.00
2018-12-08T00:18:17.745Z,0.00
2018-12-08T00:19:17.740Z,0.00
2018-12-08T00:20:17.726Z,0.00
2018-12-08T00:21:17.714Z,0.00
2018-12-08T00:22:17.742Z,0.00
2018-12-08T00:23:17.694Z,0.00
2018-12-08T00:24:17.679Z,0.00
2018-12-08T00:25:17.674Z,0.00
2018-12-08T00:26:17.662Z,0.00
2018-12-08T00:27:17.651Z,0.00
2018-12-08T00:28:17.654Z,0.00
2018-12-08T00:29:17.629Z,0.00
2018-12-08T00:30:17.617Z,0.00
2018-12-08T00:31:17.606Z,0.00
2018-12-08T00:32:17.598Z,0.00
2018-12-08T00:33:17.618Z,0.00
2018-12-08T00:34:17.576Z,0.00
2018-12-08T00:35:17.567Z,0.00
2018-12-08T00:36:17.555Z,0.00
2018-12-08T00:37:17.542Z,0.00
2018-12-08T00:38:17.531Z,0.00
2018-12-08T00:39:17.534Z,0.00
2018-12-08T00:40:17.511Z,0.00
2018-12-08T00:41:17.502Z,0.00
2018-12-08T00:42:17.491Z,0.00
2018-12-08T00:43:17.478Z,0.00
2018-12-08T00:44:17.484Z,0.00
2018-12-08T00:45:17.459Z,0.00
2018-12-08T00:46:17.447Z,0.00
2018-12-08T00:47:17.438Z,0.00
2018-12-08T00:48:17.424Z,0.00
2018-12-08T00:49:17.436Z,0.00
2018-12-08T00:50:17.443Z,0.00
2018-12-08T00:51:17.402Z,0.00
2018-12-08T00:52:17.387Z,0.00
2018-12-08T00:53:17.375Z,0.00
2018-12-08T00:54:17.362Z,0.00
2018-12-08T00:55:17.375Z,0.00
2018-12-08T00:56:17.342Z,0.00
2018-12-08T00:57:17.325Z,0.00
2018-12-08T00:58:17.317Z,0.00
2018-12-08T00:59:17.309Z,0.00
2018-12-08T01:00:17.298Z,0.00
2018-12-08T01:01:17.309Z,0.00
2018-12-08T01:02:17.276Z,0.00
2018-12-08T01:03:17.263Z,0.00
2018-12-08T01:04:17.263Z,0.00
2018-12-08T01:05:17.245Z,0.00
2018-12-08T01:06:17.232Z,0.00
2018-12-08T01:07:17.238Z,0.00
2018-12-08T01:08:17.213Z,0.00
2018-12-08T01:09:17.198Z,0.00
2018-12-08T01:10:17.203Z,0.00
2018-12-08T01:11:17.193Z,0.00
2018-12-08T01:12:17.207Z,0.00
2018-12-08T01:13:17.157Z,0.00
2018-12-08T01:14:17.145Z,0.00
2018-12-08T01:15:17.138Z,0.00
2018-12-08T01:16:17.125Z,0.00
2018-12-08T01:17:17.120Z,0.00
2018-12-08T01:18:17.121Z,0.00
2018-12-08T01:19:17.095Z,0.00
2018-12-08T01:20:17.082Z,0.00
2018-12-08T01:21:17.072Z,0.00
2018-12-08T01:22:17.078Z,0.00
2018-12-08T01:23:17.053Z,0.00
2018-12-08T01:24:17.042Z,0.00
2018-12-08T01:25:17.038Z,0.00
2018-12-08T01:26:17.018Z,0.00
2018-12-08T01:27:17.024Z,0.00
2018-12-08T01:28:16.998Z,0.00
2018-12-08T01:29:16.989Z,0.00
2018-12-08T01:30:16.979Z,0.00
2018-12-08T01:31:16.999Z,0.00
2018-12-08T01:32:16.963Z,0.00
2018-12-08T01:33:16.947Z,0.00
2018-12-08T01:34:16.933Z,0.00
2018-12-08T01:35:16.930Z,0.00
2018-12-08T01:36:16.917Z,0.00
2018-12-08T01:37:16.922Z,0.00
2018-12-08T01:38:16.897Z,0.00
2018-12-08T01:39:16.887Z,0.00
2018-12-08T01:40:16.874Z,0.00
2018-12-08T01:41:16.863Z,0.00
2018-12-08T01:42:16.890Z,0.00
2018-12-08T01:43:16.843Z,0.00
2018-12-08T01:44:16.833Z,0.00
2018-12-08T01:45:16.819Z,0.00
2018-12-08T01:46:16.813Z,0.00
2018-12-08T01:47:16.801Z,0.00
2018-12-08T01:48:16.805Z,0.00
2018-12-08T01:49:16.788Z,0.00
2018-12-08T01:50:16.765Z,0.00
2018-12-08T01:51:16.757Z,0.00
2018-12-08T01:52:16.748Z,0.00
2018-12-08T01:53:16.733Z,0.00
2018-12-08T01:54:16.758Z,0.00
2018-12-08T01:55:16.713Z,0.00
2018-12-08T01:56:16.701Z,0.00
2018-12-08T01:57:16.692Z,0.00
2018-12-08T01:58:16.680Z,0.00
2018-12-08T01:59:16.671Z,0.00
2018-12-08T02:00:16.672Z,0.00
2018-12-08T02:01:16.647Z,0.00
2018-12-08T02:02:16.643Z,0.00
2018-12-08T02:03:16.639Z,0.00
2018-12-08T02:04:16.624Z,0.00
2018-12-08T02:05:16.607Z,0.00
2018-12-08T02:06:16.595Z,0.00
2018-12-08T02:07:16.583Z,0.00
2018-12-08T02:08:16.590Z,0.00
2018-12-08T02:09:16.579Z,0.00
2018-12-08T02:10:16.567Z,0.00
2018-12-08T02:11:24.702Z,0.00
2018-12-08T02:12:17.530Z,0.00
2018-12-08T02:13:16.520Z,0.00
2018-12-08T02:14:16.524Z,0.00
2018-12-08T02:15:16.502Z,0.00
2018-12-08T02:16:16.490Z,0.00
2018-12-08T02:17:16.521Z,0.00
2018-12-08T02:18:16.466Z,0.00
2018-12-08T02:19:16.492Z,0.00
2018-12-08T02:20:16.444Z,0.00
2018-12-08T02:21:16.432Z,0.00
2018-12-08T02:22:16.424Z,0.00
2018-12-08T02:23:16.412Z,0.00
2018-12-08T02:24:16.400Z,0.00
2018-12-08T02:25:16.406Z,0.00
2018-12-08T02:26:16.396Z,0.00
2018-12-08T02:27:16.371Z,0.00
2018-12-08T02:28:16.357Z,0.00
2018-12-08T02:29:16.349Z,0.00
2018-12-08T02:30:16.362Z,0.00
2018-12-08T02:31:16.360Z,0.00
2018-12-08T02:32:16.316Z,0.00
2018-12-08T02:33:16.350Z,0.00
2018-12-08T02:34:16.296Z,0.00
2018-12-08T02:35:16.283Z,0.00
2018-12-08T02:36:16.274Z,0.00
2018-12-08T02:37:16.276Z,0.00
2018-12-08T02:38:16.252Z,0.00
2018-12-08T02:39:16.239Z,0.00
2018-12-08T02:40:16.242Z,0.00
2018-12-08T02:41:16.235Z,0.00
2018-12-08T02:42:16.209Z,0.00
2018-12-08T02:43:16.199Z,0.00
2018-12-08T02:44:16.185Z,0.00
2018-12-08T02:45:16.177Z,0.00
2018-12-08T02:46:16.602Z,0.00
2018-12-08T02:47:16.156Z,0.00
2018-12-08T02:48:16.143Z,0.00
2018-12-08T02:49:16.135Z,0.00
2018-12-08T02:50:16.124Z,0.00
2018-12-08T02:51:16.113Z,0.00
2018-12-08T02:52:16.145Z,0.00
2018-12-08T02:53:16.092Z,0.00
2018-12-08T02:54:16.082Z,0.00
2018-12-08T02:55:16.071Z,0.00
2018-12-08T02:56:16.058Z,0.00
2018-12-08T02:57:16.048Z,0.00
2018-12-08T02:58:16.050Z,0.00
2018-12-08T02:59:16.024Z,0.00
2018-12-08T03:00:16.014Z,0.00
2018-12-08T03:01:16.007Z,0.00
2018-12-08T03:02:16.008Z,0.00
2018-12-08T03:03:15.996Z,0.00
2018-12-08T03:04:15.974Z,0.00
2018-12-08T03:05:15.963Z,0.00
2018-12-08T03:06:15.950Z,0.00
2018-12-08T03:07:15.956Z,0.00
2018-12-08T03:08:15.928Z,0.00
2018-12-08T03:09:15.928Z,0.00
2018-12-08T03:10:15.909Z,0.00
2018-12-08T03:11:15.899Z,0.00
2018-12-08T03:12:15.894Z,0.00
2018-12-08T03:13:15.880Z,0.00
2018-12-08T03:14:15.878Z,0.00
2018-12-08T03:15:15.860Z,0.00
2018-12-08T03:16:15.844Z,0.00
2018-12-08T03:17:15.836Z,0.00
2018-12-08T03:18:15.835Z,0.00
2018-12-08T03:19:15.812Z,0.00
2018-12-08T03:20:15.800Z,0.00
2018-12-08T03:21:15.791Z,0.00
2018-12-08T03:22:15.778Z,0.00
2018-12-08T03:23:15.811Z,0.00
2018-12-08T03:24:15.755Z,0.00
2018-12-08T03:25:15.748Z,0.00
2018-12-08T03:26:15.740Z,0.00
2018-12-08T03:27:15.725Z,0.00
2018-12-08T03:28:15.718Z,0.00
2018-12-08T03:29:15.817Z,0.00
2018-12-08T03:30:15.696Z,0.00
2018-12-08T03:31:15.700Z,0.00
2018-12-08T03:32:15.675Z,0.00
2018-12-08T03:33:15.661Z,0.00
2018-12-08T03:34:15.650Z,0.00
2018-12-08T03:35:15.644Z,0.00
2018-12-08T03:36:15.669Z,0.00
2018-12-08T03:37:15.619Z,0.00
2018-12-08T03:38:15.609Z,0.00
2018-12-08T03:39:15.600Z,0.00
2018-12-08T03:40:15.590Z,0.00
2018-12-08T03:41:15.579Z,0.00
2018-12-08T03:42:15.580Z,0.00
2018-12-08T03:43:15.568Z,0.00
2018-12-08T03:44:15.543Z,0.00
2018-12-08T03:45:15.533Z,0.00
2018-12-08T03:46:15.523Z,0.00
2018-12-08T03:47:15.536Z,0.00
2018-12-08T03:48:15.501Z,0.00
2018-12-08T03:49:15.492Z,0.00
2018-12-08T03:50:15.480Z,0.00
2018-12-08T03:51:15.470Z,0.00
2018-12-08T03:52:15.462Z,0.00
2018-12-08T03:53:15.465Z,0.00
2018-12-08T03:54:15.438Z,0.00
2018-12-08T03:55:15.431Z,0.00
2018-12-08T03:56:15.416Z,0.00
2018-12-08T03:57:15.408Z,0.00
2018-12-08T03:58:15.410Z,0.00
2018-12-08T03:59:15.383Z,0.00
2018-12-08T04:00:15.375Z,0.00
2018-12-08T04:01:15.366Z,0.00
2018-12-08T04:02:15.351Z,0.00
2018-12-08T04:03:15.360Z,0.00
2018-12-08T04:04:15.345Z,0.00
2018-12-08T04:05:15.319Z,0.00
2018-12-08T04:06:15.311Z,0.00
2018-12-08T04:07:15.299Z,0.00
2018-12-08T04:08:15.291Z,0.00
2018-12-08T04:09:15.295Z,0.00
2018-12-08T04:10:15.268Z,0.00
2018-12-08T04:11:15.281Z,0.00
2018-12-08T04:12:15.245Z,0.00
2018-12-08T04:13:15.253Z,0.00
2018-12-08T04:14:15.263Z,0.00
2018-12-08T04:15:15.216Z,0.00
2018-12-08T04:16:15.205Z,0.00
2018-12-08T04:17:15.197Z,0.00
2018-12-08T04:18:15.185Z,0.00
2018-12-08T04:19:15.170Z,0.00
2018-12-08T04:20:15.181Z,0.00
2018-12-08T04:21:15.155Z,0.00
2018-12-08T04:22:15.140Z,0.00
2018-12-08T04:23:15.130Z,0.00
2018-12-08T04:24:15.121Z,0.00
2018-12-08T04:25:15.110Z,0.00
2018-12-08T04:26:15.132Z,0.00
2018-12-08T04:27:15.086Z,0.00
2018-12-08T04:28:15.075Z,0.00
2018-12-08T04:29:15.064Z,0.00
2018-12-08T04:30:15.058Z,0.00
2018-12-08T04:31:15.043Z,0.00
2018-12-08T04:32:15.046Z,0.00
2018-12-08T04:33:15.024Z,0.00
2018-12-08T04:34:15.015Z,0.00
2018-12-08T04:35:15.001Z,0.00
2018-12-08T04:36:14.989Z,0.00
2018-12-08T04:37:14.992Z,0.00
2018-12-08T04:38:14.975Z,0.00
2018-12-08T04:39:14.959Z,0.00
2018-12-08T04:40:14.949Z,0.00
2018-12-08T04:41:14.972Z,0.00
2018-12-08T04:42:14.923Z,0.00
2018-12-08T04:43:14.950Z,0.00
2018-12-08T04:44:14.901Z,0.00
2018-12-08T04:45:14.891Z,0.00
2018-12-08T04:46:14.898Z,0.00
2018-12-08T04:47:14.874Z,0.00
2018-12-08T04:48:14.861Z,0.00
2018-12-08T04:49:14.849Z,0.00
2018-12-08T04:50:14.837Z,0.00
2018-12-08T04:51:14.850Z,0.00
2018-12-08T04:52:14.822Z,0.00
2018-12-08T04:53:14.808Z,0.00
2018-12-08T04:54:14.797Z,0.00
2018-12-08T04:55:14.785Z,0.00
2018-12-08T04:56:14.777Z,0.00
2018-12-08T04:57:14.780Z,0.00
2018-12-08T04:58:14.763Z,0.00
2018-12-08T04:59:14.745Z,0.00
2018-12-08T05:00:14.734Z,0.00
2018-12-08T05:01:14.723Z,0.00
2018-12-08T05:02:14.724Z,0.00
2018-12-08T05:03:14.701Z,0.00
2018-12-08T05:04:14.690Z,0.00
2018-12-08T05:05:14.688Z,0.00
2018-12-08T05:06:14.670Z,0.00
2018-12-08T05:07:14.674Z,0.00
2018-12-08T05:08:14.660Z,0.00
2018-12-08T05:09:14.637Z,0.00
2018-12-08T05:10:14.627Z,0.00
2018-12-08T05:11:14.614Z,0.00
2018-12-08T05:12:14.606Z,0.00
2018-12-08T05:13:14.606Z,0.00
2018-12-08T05:14:14.584Z,0.00
2018-12-08T05:15:14.575Z,0.00
2018-12-08T05:16:14.561Z,0.00
2018-12-08T05:17:14.549Z,0.00
2018-12-08T05:18:14.541Z,0.00
2018-12-08T05:19:14.547Z,0.00
2018-12-08T05:20:14.522Z,0.00
2018-12-08T05:21:14.521Z,0.00
2018-12-08T05:22:14.498Z,0.00
2018-12-08T05:23:14.486Z,0.00
2018-12-08T05:24:14.480Z,0.00
2018-12-08T05:25:14.468Z,0.00
2018-12-08T05:26:14.597Z,0.00
2018-12-08T05:27:14.446Z,0.00
2018-12-08T05:28:14.452Z,0.00
2018-12-08T05:29:14.426Z,0.00
2018-12-08T05:30:14.412Z,0.00
2018-12-08T05:31:14.402Z,0.00
2018-12-08T05:32:14.433Z,0.00
2018-12-08T05:33:14.385Z,0.00
2018-12-08T05:34:14.372Z,0.00
2018-12-08T05:35:14.362Z,0.00
2018-12-08T05:36:14.350Z,0.00
2018-12-08T05:37:14.340Z,0.00
2018-12-08T05:38:14.340Z,0.00
2018-12-08T05:39:14.317Z,0.00
2018-12-08T05:40:14.312Z,0.00
2018-12-08T05:41:14.295Z,0.00
2018-12-08T05:42:14.298Z,0.00
2018-12-08T05:43:14.273Z,0.00
2018-12-08T05:44:14.263Z,0.00
2018-12-08T05:45:14.295Z,0.00
2018-12-08T05:46:14.244Z,0.00
2018-12-08T05:47:14.234Z,0.00
2018-12-08T05:48:14.223Z,0.00
2018-12-08T05:49:14.212Z,0.00
2018-12-08T05:50:14.203Z,0.00
2018-12-08T05:51:14.208Z,0.00
2018-12-08T05:52:14.179Z,0.00
2018-12-08T05:53:14.167Z,0.00
2018-12-08T05:54:14.157Z,0.00
2018-12-08T05:55:14.149Z,0.00
2018-12-08T05:56:14.151Z,0.00
2018-12-08T05:57:14.126Z,0.00
2018-12-08T05:58:14.145Z,0.00
2018-12-08T05:59:14.106Z,0.00
2018-12-08T06:00:14.096Z,0.00
2018-12-08T06:01:14.084Z,0.00
2018-12-08T06:02:14.071Z,0.00
2018-12-08T06:03:14.061Z,0.00
2018-12-08T06:04:14.091Z,0.00
2018-12-08T06:05:14.039Z,0.00
2018-12-08T06:06:14.031Z,0.00
2018-12-08T06:07:14.019Z,0.00
2018-12-08T06:08:14.006Z,0.00
2018-12-08T06:09:14.000Z,0.00
2018-12-08T06:10:14.001Z,0.00
2018-12-08T06:11:13.979Z,0.00
2018-12-08T06:12:13.965Z,0.00
2018-12-08T06:13:13.958Z,0.00
2018-12-08T06:14:13.945Z,0.00
2018-12-08T06:15:13.948Z,0.00
2018-12-08T06:16:13.963Z,0.00
2018-12-08T06:17:13.913Z,0.00
2018-12-08T06:18:13.903Z,0.00
2018-12-08T06:19:13.891Z,0.00
2018-12-08T06:20:13.882Z,0.00
2018-12-08T06:21:13.869Z,0.00
2018-12-08T06:22:13.895Z,0.00
2018-12-08T06:23:13.853Z,0.00
2018-12-08T06:24:13.840Z,0.00
2018-12-08T06:25:13.833Z,0.00
2018-12-08T06:26:13.815Z,0.00
2018-12-08T06:27:13.807Z,0.00
2018-12-08T06:28:13.811Z,0.00
2018-12-08T06:29:13.782Z,0.00
2018-12-08T06:30:13.772Z,0.00
2018-12-08T06:31:13.766Z,0.00
2018-12-08T06:32:13.752Z,0.00
2018-12-08T06:33:13.740Z,0.00
2018-12-08T06:34:13.741Z,0.00
2018-12-08T06:35:13.721Z,0.00
2018-12-08T06:36:13.716Z,0.00
2018-12-08T06:37:13.703Z,0.00
2018-12-08T06:38:13.703Z,0.00
2018-12-08T06:39:13.676Z,0.00
2018-12-08T06:40:13.668Z,0.00
2018-12-08T06:41:13.673Z,0.00
2018-12-08T06:42:13.646Z,0.00
2018-12-08T06:43:13.633Z,0.00
2018-12-08T06:44:13.625Z,0.00
2018-12-08T06:45:13.625Z,0.00
2018-12-08T06:46:13.619Z,0.00
2018-12-08T06:47:13.594Z,4.00
2018-12-08T06:48:13.586Z,0.00
2018-12-08T06:49:13.571Z,4.00
2018-12-08T06:50:13.557Z,4.00
2018-12-08T06:51:13.570Z,8.00
2018-12-08T06:52:13.539Z,4.00
2018-12-08T06:53:13.530Z,8.00
2018-12-08T06:54:13.517Z,4.00
2018-12-08T06:55:13.507Z,8.00
2018-12-08T06:56:13.497Z,8.00
2018-12-08T06:57:13.502Z,8.00
2018-12-08T06:58:13.473Z,8.00
2018-12-08T06:59:13.467Z,12.00
2018-12-08T07:00:13.461Z,12.00
2018-12-08T07:01:13.442Z,12.00
2018-12-08T07:02:13.468Z,16.00
2018-12-08T07:03:13.424Z,16.00
2018-12-08T07:04:13.413Z,20.00
2018-12-08T07:05:13.401Z,24.00
2018-12-08T07:06:13.392Z,28.00
2018-12-08T07:07:13.381Z,32.00
2018-12-08T07:08:13.383Z,32.00
2018-12-08T07:09:13.383Z,44.00
2018-12-08T07:10:13.348Z,36.00
2018-12-08T07:11:13.335Z,44.00
2018-12-08T07:12:13.327Z,48.00
2018-12-08T07:13:13.318Z,80.00
2018-12-08T07:14:13.302Z,104.00
2018-12-08T07:15:13.308Z,112.00
2018-12-08T07:16:13.281Z,116.00
2018-12-08T07:17:13.272Z,136.00
2018-12-08T07:18:13.278Z,132.00
2018-12-08T07:19:13.249Z,160.00
2018-12-08T07:20:13.239Z,172.00
2018-12-08T07:21:13.245Z,160.00
2018-12-08T07:22:13.229Z,124.00
2018-12-08T07:23:13.210Z,140.00
2018-12-08T07:24:13.197Z,192.00
2018-12-08T07:25:13.187Z,256.00
2018-12-08T07:26:13.174Z,248.00
2018-12-08T07:27:13.185Z,248.00
2018-12-08T07:28:13.156Z,180.00
2018-12-08T07:29:13.144Z,180.00
2018-12-08T07:30:13.132Z,164.00
2018-12-08T07:31:13.119Z,128.00
2018-12-08T07:32:13.146Z,148.00
2018-12-08T07:33:13.098Z,156.00
2018-12-08T07:34:13.088Z,148.00
2018-12-08T07:35:13.077Z,156.00
2018-12-08T07:36:13.066Z,208.00
2018-12-08T07:37:13.056Z,212.00
2018-12-08T07:38:13.062Z,144.00
2018-12-08T07:39:13.034Z,260.00
2018-12-08T07:40:13.023Z,260.00
2018-12-08T07:41:13.016Z,228.00
2018-12-08T07:42:13.005Z,256.00
2018-12-08T07:43:13.023Z,308.00
2018-12-08T07:44:12.981Z,388.00
2018-12-08T07:45:12.971Z,360.00
2018-12-08T07:46:12.960Z,248.00
2018-12-08T07:47:12.955Z,264.00
2018-12-08T07:48:12.934Z,292.00
2018-12-08T07:49:12.963Z,360.00
2018-12-08T07:50:12.917Z,368.00
2018-12-08T07:51:12.906Z,408.00
2018-12-08T07:52:12.899Z,604.00
2018-12-08T07:53:12.888Z,860.00
2018-12-08T07:54:12.879Z,800.00
2018-12-08T07:55:12.901Z,968.00
2018-12-08T07:56:12.854Z,660.00
2018-12-08T07:57:12.842Z,376.00
2018-12-08T07:58:12.834Z,440.00
2018-12-08T07:59:12.825Z,540.00
2018-12-08T08:00:12.809Z,536.00
2018-12-08T08:01:12.836Z,640.00
2018-12-08T08:02:12.791Z,836.00
2018-12-08T08:03:12.777Z,704.00
2018-12-08T08:04:12.769Z,588.00
2018-12-08T08:05:12.763Z,396.00
2018-12-08T08:06:12.745Z,344.00
2018-12-08T08:07:12.751Z,448.00
2018-12-08T08:08:12.724Z,492.00
2018-12-08T08:09:12.716Z,480.00
2018-12-08T08:10:12.723Z,504.00
2018-12-08T08:11:12.711Z,492.00
2018-12-08T08:12:12.685Z,496.00
2018-12-08T08:13:12.672Z,448.00
2018-12-08T08:14:12.661Z,412.00
2018-12-08T08:15:12.652Z,548.00
2018-12-08T08:16:12.672Z,544.00
2018-12-08T08:17:12.632Z,564.00
2018-12-08T08:18:12.620Z,604.00
2018-12-08T08:19:12.607Z,680.00
2018-12-08T08:20:12.598Z,744.00
2018-12-08T08:21:12.585Z,1020.00
2018-12-08T08:22:12.599Z,1336.00
2018-12-08T08:23:12.563Z,1516.00
2018-12-08T08:24:12.556Z,2020.00
2018-12-08T08:25:12.546Z,1640.00
2018-12-08T08:26:12.534Z,1484.00
2018-12-08T08:27:12.521Z,1124.00
2018-12-08T08:28:12.550Z,1080.00
2018-12-08T08:29:12.500Z,1108.00
2018-12-08T08:30:12.491Z,1104.00
2018-12-08T08:31:12.481Z,1732.00
2018-12-08T08:32:12.470Z,2388.00
2018-12-08T08:33:12.457Z,1884.00
2018-12-08T08:34:12.474Z,1532.00
2018-12-08T08:35:12.434Z,1260.00
2018-12-08T08:36:12.424Z,1520.00
2018-12-08T08:37:12.415Z,1232.00
2018-12-08T08:38:12.406Z,1456.00
2018-12-08T08:39:12.392Z,1660.00
2018-12-08T08:40:12.399Z,1936.00
2018-12-08T08:41:12.373Z,1808.00
2018-12-08T08:42:12.360Z,1492.00
2018-12-08T08:43:12.350Z,1384.00
2018-12-08T08:44:12.343Z,1356.00
2018-12-08T08:45:12.346Z,1720.00
2018-12-08T08:46:12.320Z,1888.00
2018-12-08T08:47:12.312Z,2020.00
2018-12-08T08:48:12.300Z,2452.00
2018-12-08T08:49:12.288Z,2824.00
2018-12-08T08:50:12.307Z,2712.00
2018-12-08T08:51:12.264Z,2372.00
2018-12-08T08:52:12.256Z,1812.00
2018-12-08T08:53:12.247Z,1832.00
2018-12-08T08:54:12.237Z,2304.00
2018-12-08T08:55:12.227Z,2204.00
2018-12-08T08:56:12.228Z,1480.00
2018-12-08T08:57:12.204Z,1228.00
2018-12-08T08:58:12.194Z,820.00
2018-12-08T08:59:12.216Z,1028.00
2018-12-08T09:00:12.168Z,1360.00
2018-12-08T09:01:12.163Z,1132.00
2018-12-08T09:02:12.150Z,1148.00
2018-12-08T09:03:12.142Z,1664.00
2018-12-08T09:04:12.125Z,1880.00
2018-12-08T09:05:12.129Z,1820.00
2018-12-08T09:06:12.118Z,1548.00
2018-12-08T09:07:12.095Z,1484.00
2018-12-08T09:08:12.085Z,1540.00
2018-12-08T09:09:12.075Z,1572.00
2018-12-08T09:10:12.099Z,2204.00
2018-12-08T09:11:12.051Z,2076.00
2018-12-08T09:12:12.038Z,2052.00
2018-12-08T09:13:12.030Z,1696.00
2018-12-08T09:14:13.277Z,1828.00
2018-12-08T09:15:12.010Z,1672.00
2018-12-08T09:16:12.005Z,1536.00
2018-12-08T09:17:11.998Z,1560.00
2018-12-08T09:18:11.988Z,1380.00
2018-12-08T09:19:11.965Z,1800.00
2018-12-08T09:20:11.953Z,1784.00
2018-12-08T09:21:11.942Z,2068.00
2018-12-08T09:22:11.945Z,1896.00
2018-12-08T09:23:11.924Z,1732.00
2018-12-08T09:24:11.915Z,1660.00
2018-12-08T09:25:11.902Z,1676.00
2018-12-08T09:26:11.888Z,1368.00
2018-12-08T09:27:11.892Z,1112.00
2018-12-08T09:28:11.876Z,952.00
2018-12-08T09:29:11.875Z,808.00
2018-12-08T09:30:11.853Z,820.00
2018-12-08T09:31:11.835Z,732.00
2018-12-08T09:32:11.842Z,620.00
2018-12-08T09:33:11.814Z,608.00
2018-12-08T09:34:11.804Z,700.00
2018-12-08T09:35:11.794Z,692.00
2018-12-08T09:36:11.783Z,660.00
2018-12-08T09:37:11.812Z,724.00
2018-12-08T09:38:11.799Z,580.00
2018-12-08T09:39:11.750Z,652.00
2018-12-08T09:40:11.739Z,620.00
2018-12-08T09:41:11.733Z,540.00
2018-12-08T09:42:11.719Z,564.00
2018-12-08T09:43:11.716Z,584.00
2018-12-08T09:44:11.720Z,656.00
2018-12-08T09:45:11.684Z,812.00
2018-12-08T09:46:11.674Z,1000.00
2018-12-08T09:47:11.668Z,1180.00
2018-12-08T09:48:11.654Z,1000.00
2018-12-08T09:49:11.664Z,1216.00
2018-12-08T09:50:11.635Z,1228.00
2018-12-08T09:51:11.624Z,1340.00
2018-12-08T09:52:11.612Z,1488.00
2018-12-08T09:53:11.602Z,1732.00
2018-12-08T09:54:12.507Z,1500.00
2018-12-08T09:55:11.582Z,1336.00
2018-12-08T09:56:11.571Z,1360.00
2018-12-08T09:57:11.557Z,1264.00
2018-12-08T09:58:11.547Z,1124.00
2018-12-08T09:59:11.537Z,1232.00
2018-12-08T10:00:11.556Z,1448.00
2018-12-08T10:01:11.518Z,1296.00
2018-12-08T10:02:11.529Z,952.00
2018-12-08T10:03:11.497Z,936.00
2018-12-08T10:04:11.485Z,1064.00
2018-12-08T10:05:11.475Z,1140.00
2018-12-08T10:06:11.478Z,1192.00
2018-12-08T10:07:11.452Z,1060.00
2018-12-08T10:08:11.445Z,1156.00
2018-12-08T10:09:11.431Z,1128.00
2018-12-08T10:10:11.439Z,1372.00
2018-12-08T10:11:11.410Z,1364.00
2018-12-08T10:12:11.416Z,1356.00
2018-12-08T10:13:11.393Z,1180.00
2018-12-08T10:14:11.380Z,1044.00
2018-12-08T10:15:11.364Z,1168.00
2018-12-08T10:16:11.371Z,1444.00
2018-12-08T10:17:11.347Z,1640.00
2018-12-08T10:18:11.334Z,1328.00
2018-12-08T10:19:11.323Z,1148.00
2018-12-08T10:20:11.313Z,1484.00
2018-12-08T10:21:11.313Z,1692.00
2018-12-08T10:22:11.294Z,1708.00
2018-12-08T10:23:11.285Z,1772.00
2018-12-08T10:24:11.272Z,2392.00
2018-12-08T10:25:11.261Z,1912.00
2018-12-08T10:26:11.281Z,2304.00
2018-12-08T10:27:11.240Z,2168.00
2018-12-08T10:28:11.232Z,1644.00
2018-12-08T10:29:11.217Z,1736.00
2018-12-08T10:30:11.207Z,1732.00
2018-12-08T10:31:11.209Z,1304.00
2018-12-08T10:32:11.185Z,964.00
2018-12-08T10:33:11.176Z,1160.00
2018-12-08T10:34:11.164Z,1572.00
2018-12-08T10:35:11.152Z,1408.00
2018-12-08T10:36:11.178Z,2068.00
2018-12-08T10:37:11.131Z,2200.00
2018-12-08T10:38:11.122Z,1824.00
2018-12-08T10:39:11.110Z,2044.00
2018-12-08T10:40:11.102Z,1908.00
2018-12-08T10:41:11.090Z,1648.00
2018-12-08T10:42:11.095Z,2040.00
2018-12-08T10:43:11.067Z,1412.00
2018-12-08T10:44:11.067Z,1440.00
2018-12-08T10:45:11.046Z,1228.00
2018-12-08T10:46:11.037Z,1128.00
2018-12-08T10:47:11.024Z,904.00
2018-12-08T10:48:11.029Z,1032.00
2018-12-08T10:49:11.016Z,1212.00
2018-12-08T10:50:10.993Z,2104.00
2018-12-08T10:51:10.982Z,1956.00
2018-12-08T10:52:11.003Z,1884.00
2018-12-08T10:53:10.961Z,2276.00
2018-12-08T10:54:10.952Z,2888.00
2018-12-08T10:55:10.939Z,1904.00
2018-12-08T10:56:10.934Z,1896.00
2018-12-08T10:57:10.920Z,2176.00
2018-12-08T10:58:10.947Z,1760.00
2018-12-08T10:59:10.897Z,1496.00
2018-12-08T11:00:10.887Z,1584.00
2018-12-08T11:01:10.880Z,2360.00
2018-12-08T11:02:10.866Z,1868.00
2018-12-08T11:03:10.854Z,2052.00
2018-12-08T11:04:10.864Z,2112.00
2018-12-08T11:05:10.832Z,2040.00
2018-12-08T11:06:10.823Z,2192.00
2018-12-08T11:07:10.812Z,1736.00
2018-12-08T11:08:10.803Z,1364.00
2018-12-08T11:09:10.790Z,1296.00
2018-12-08T11:10:10.794Z,1300.00
2018-12-08T11:11:10.782Z,1056.00
2018-12-08T11:12:10.762Z,1092.00
2018-12-08T11:13:10.750Z,1112.00
2018-12-08T11:14:10.754Z,944.00
2018-12-08T11:15:10.729Z,1172.00
2018-12-08T11:16:10.748Z,1260.00
2018-12-08T11:17:10.705Z,1280.00
2018-12-08T11:18:10.697Z,1828.00
2018-12-08T11:19:10.687Z,2188.00
2018-12-08T11:20:10.674Z,3200.00
2018-12-08T11:21:10.665Z,3668.00
2018-12-08T11:22:10.667Z,3544.00
2018-12-08T11:23:10.643Z,4084.00
2018-12-08T11:24:10.722Z,4168.00
2018-12-08T11:25:10.622Z,5696.00
2018-12-08T11:26:10.613Z,5788.00
2018-12-08T11:27:10.640Z,5536.00
2018-12-08T11:28:10.589Z,5452.00
2018-12-08T11:29:10.577Z,5556.00
2018-12-08T11:30:10.568Z,6192.00
2018-12-08T11:31:10.557Z,5548.00
2018-12-08T11:32:10.547Z,5292.00
2018-12-08T11:33:10.547Z,5348.00
2018-12-08T11:34:10.522Z,3424.00
2018-12-08T11:35:10.512Z,2524.00
2018-12-08T11:36:10.503Z,3172.00
2018-12-08T11:37:10.489Z,2532.00
2018-12-08T11:38:10.503Z,2408.00
2018-12-08T11:39:10.468Z,2012.00
2018-12-08T11:40:10.460Z,1424.00
2018-12-08T11:41:10.449Z,1348.00
2018-12-08T11:42:10.439Z,1040.00
2018-12-08T11:43:10.429Z,1052.00
2018-12-08T11:44:10.429Z,1200.00
2018-12-08T11:45:10.413Z,1840.00
2018-12-08T11:46:10.429Z,2316.00
2018-12-08T11:47:10.383Z,1908.00
2018-12-08T11:48:10.401Z,1952.00
2018-12-08T11:49:10.363Z,1352.00
2018-12-08T11:50:10.365Z,1612.00
2018-12-08T11:51:10.353Z,2012.00
2018-12-08T11:52:10.341Z,1736.00
2018-12-08T11:53:10.315Z,1724.00
2018-12-08T11:54:10.305Z,2100.00
2018-12-08T11:55:10.296Z,2220.00
2018-12-08T11:56:10.300Z,1620.00
2018-12-08T11:57:10.439Z,1724.00
2018-12-08T11:58:10.264Z,1828.00
2018-12-08T11:59:10.252Z,1736.00
2018-12-08T12:00:10.281Z,1288.00
2018-12-08T12:01:10.235Z,1500.00
2018-12-08T12:02:16.456Z,1512.00
2018-12-08T12:03:11.206Z,1632.00
2018-12-08T12:04:10.198Z,3040.00
2018-12-08T12:05:10.188Z,3220.00
2018-12-08T12:06:10.193Z,5640.00
2018-12-08T12:07:10.165Z,5204.00
2018-12-08T12:08:10.176Z,5436.00
2018-12-08T12:09:10.145Z,4412.00
2018-12-08T12:10:10.131Z,4080.00
2018-12-08T12:11:10.121Z,4580.00
2018-12-08T12:12:10.125Z,3972.00
2018-12-08T12:13:10.100Z,4036.00
2018-12-08T12:14:10.092Z,2232.00
2018-12-08T12:15:10.082Z,2704.00
2018-12-08T12:16:10.069Z,2524.00
2018-12-08T12:17:10.087Z,2344.00
2018-12-08T12:18:10.049Z,1848.00
2018-12-08T12:19:10.036Z,2264.00
2018-12-08T12:20:10.027Z,2688.00
2018-12-08T12:21:10.013Z,3528.00
2018-12-08T12:22:10.002Z,2756.00
2018-12-08T12:23:10.024Z,2972.00
2018-12-08T12:24:09.995Z,2920.00
2018-12-08T12:25:09.972Z,3672.00
2018-12-08T12:26:09.961Z,4600.00
2018-12-08T12:27:09.951Z,6988.00
2018-12-08T12:28:11.170Z,4660.00
2018-12-08T12:29:09.941Z,4204.00
2018-12-08T12:30:09.918Z,3540.00
2018-12-08T12:31:09.915Z,3968.00
2018-12-08T12:32:09.894Z,3844.00
2018-12-08T12:33:09.899Z,3368.00
2018-12-08T12:34:09.875Z,3664.00
2018-12-08T12:35:09.864Z,4420.00
2018-12-08T12:36:09.857Z,6360.00
2018-12-08T12:37:09.840Z,8120.00
2018-12-08T12:38:09.859Z,9296.00
2018-12-08T12:39:09.820Z,9152.00
2018-12-08T12:40:09.806Z,9048.00
2018-12-08T12:41:09.795Z,10168.00
2018-12-08T12:42:09.785Z,10804.00
2018-12-08T12:43:09.773Z,10740.00
2018-12-08T12:44:09.775Z,10824.00
2018-12-08T12:45:09.751Z,12508.00
2018-12-08T12:46:09.744Z,12616.00
2018-12-08T12:47:09.734Z,14908.00